createdAt,value
2023-01-05T00:01:07.491Z,9.63
2023-01-05T00:03:35.755Z,9.61
2023-01-05T00:06:08.266Z,9.64
2023-01-05T00:08:37.552Z,9.61
2023-01-05T00:11:30.159Z,9.66
2023-01-05T00:14:15.669Z,9.53
2023-01-05T00:17:00.627Z,9.57
2023-01-05T00:19:48.937Z,9.57
2023-01-05T00:22:32.372Z,9.46
2023-01-05T00:25:12.562Z,9.53
2023-01-05T00:27:44.856Z,9.52
2023-01-05T00:30:14.181Z,9.59
2023-01-05T00:32:42.324Z,9.53
2023-01-05T00:35:10.171Z,9.64
2023-01-05T00:37:38.544Z,9.71
2023-01-05T00:40:10.976Z,9.78
2023-01-05T00:42:38.159Z,9.80
2023-01-05T00:45:09.610Z,9.74
2023-01-05T00:47:36.236Z,9.73
2023-01-05T00:50:03.797Z,9.64
2023-01-05T00:52:30.307Z,9.61
2023-01-05T00:54:56.836Z,9.57
2023-01-05T00:57:23.379Z,9.59
2023-01-05T00:59:49.876Z,9.63
2023-01-05T01:02:16.489Z,9.61
2023-01-05T01:04:43.202Z,9.61
2023-01-05T01:07:09.984Z,9.69
2023-01-05T01:09:37.381Z,9.72
2023-01-05T01:12:04.156Z,9.68
2023-01-05T01:14:30.980Z,9.74
2023-01-05T01:16:57.539Z,9.69
2023-01-05T01:19:26.111Z,9.79
2023-01-05T01:21:52.685Z,9.96
2023-01-05T01:24:25.249Z,9.87
2023-01-05T01:26:52.762Z,9.73
2023-01-05T01:29:20.044Z,9.71
2023-01-05T01:31:51.658Z,9.75
2023-01-05T01:34:18.644Z,9.87
2023-01-05T01:36:45.712Z,9.63
2023-01-05T01:39:12.911Z,9.54
2023-01-05T01:41:39.671Z,9.52
2023-01-05T01:44:43.612Z,9.67
2023-01-05T01:47:25.826Z,9.60
2023-01-05T01:49:55.714Z,9.51
2023-01-05T01:52:24.781Z,9.52
2023-01-05T01:54:52.355Z,9.48
2023-01-05T01:57:19.125Z,9.55
2023-01-05T01:59:45.893Z,9.55
2023-01-05T02:02:13.564Z,9.50
2023-01-05T02:04:40.810Z,9.47
2023-01-05T02:07:13.405Z,9.56
2023-01-05T02:09:39.900Z,9.41
2023-01-05T02:12:25.942Z,9.67
2023-01-05T02:15:07.624Z,9.67
2023-01-05T02:17:56.715Z,9.72
2023-01-05T02:20:29.194Z,9.73
2023-01-05T02:23:46.184Z,9.75
2023-01-05T02:26:39.968Z,9.78
2023-01-05T02:29:36.169Z,9.85
2023-01-05T02:32:13.164Z,9.89
2023-01-05T02:34:54.918Z,9.96
2023-01-05T02:37:35.663Z,9.89
2023-01-05T02:40:24.782Z,9.97
2023-01-05T02:42:55.739Z,10.01
2023-01-05T02:45:24.580Z,9.99
2023-01-05T02:47:52.184Z,9.98
2023-01-05T02:50:24.240Z,10.01
2023-01-05T02:52:54.659Z,10.05
2023-01-05T02:55:28.856Z,9.96
2023-01-05T02:58:03.281Z,10.13
2023-01-05T03:00:42.956Z,10.03
2023-01-05T03:03:34.392Z,10.01
2023-01-05T03:06:12.819Z,9.99
2023-01-05T03:08:48.921Z,9.97
2023-01-05T03:11:34.467Z,10.01
2023-01-05T03:14:12.738Z,10.18
2023-01-05T03:16:39.932Z,10.25
2023-01-05T03:19:29.791Z,10.23
2023-01-05T03:22:16.558Z,10.14
2023-01-05T03:25:03.499Z,10.00
2023-01-05T03:27:49.971Z,9.92
2023-01-05T03:30:35.413Z,10.00
2023-01-05T03:33:33.171Z,9.89
2023-01-05T03:36:01.017Z,9.99
2023-01-05T03:38:43.930Z,10.01
2023-01-05T03:41:14.285Z,9.98
2023-01-05T03:43:42.973Z,10.04
2023-01-05T03:46:17.857Z,10.06
2023-01-05T03:48:44.443Z,10.00
2023-01-05T03:51:11.080Z,10.00
2023-01-05T03:53:37.794Z,10.16
2023-01-05T03:56:04.963Z,10.14
2023-01-05T03:58:31.675Z,10.23
2023-01-05T04:00:58.133Z,10.25
2023-01-05T04:03:31.066Z,10.28
2023-01-05T04:05:58.096Z,10.30
2023-01-05T04:08:24.612Z,10.14
2023-01-05T04:10:54.285Z,10.18
2023-01-05T04:13:20.920Z,10.17
2023-01-05T04:15:47.480Z,10.22
2023-01-05T04:18:14.075Z,10.26
2023-01-05T04:20:43.627Z,10.31
2023-01-05T04:23:13.351Z,10.46
2023-01-05T04:25:39.962Z,10.48
2023-01-05T04:28:06.481Z,10.60
2023-01-05T04:30:32.953Z,10.59
2023-01-05T04:32:59.456Z,10.56
2023-01-05T04:35:25.924Z,10.53
2023-01-05T04:37:52.416Z,10.52
2023-01-05T04:40:18.980Z,10.44
2023-01-05T04:42:46.761Z,10.42
2023-01-05T04:45:13.463Z,10.40
2023-01-05T04:47:39.998Z,10.55
2023-01-05T04:50:07.287Z,10.47
2023-01-05T04:52:33.984Z,10.40
2023-01-05T04:55:00.504Z,10.29
2023-01-05T04:57:27.307Z,10.32
2023-01-05T04:59:53.890Z,10.17
2023-01-05T05:02:20.552Z,10.18
2023-01-05T05:04:47.821Z,10.24
2023-01-05T05:07:14.361Z,10.32
2023-01-05T05:09:40.894Z,10.29
2023-01-05T05:12:07.751Z,10.23
2023-01-05T05:14:34.252Z,10.29
2023-01-05T05:17:00.846Z,10.12
2023-01-05T05:19:27.381Z,10.22
2023-01-05T05:21:53.930Z,10.10
2023-01-05T05:24:20.451Z,10.02
2023-01-05T05:26:47.148Z,10.04
2023-01-05T05:29:16.635Z,10.07
2023-01-05T05:31:43.429Z,10.13
2023-01-05T05:34:09.997Z,10.16
2023-01-05T05:36:38.083Z,10.10
2023-01-05T05:39:04.609Z,9.99
2023-01-05T05:41:31.230Z,10.07
2023-01-05T05:44:00.882Z,9.98
2023-01-05T05:46:28.594Z,10.02
2023-01-05T05:48:57.629Z,10.00
2023-01-05T05:51:25.074Z,10.09
2023-01-05T05:53:52.028Z,10.12
2023-01-05T05:56:18.988Z,10.12
2023-01-05T05:58:48.686Z,10.19
2023-01-05T06:01:18.272Z,10.19
2023-01-05T06:03:46.941Z,10.21
2023-01-05T06:06:13.487Z,10.13
2023-01-05T06:08:40.006Z,10.22
2023-01-05T06:11:06.608Z,10.09
2023-01-05T06:13:33.444Z,10.14
2023-01-05T06:16:00.077Z,10.09
2023-01-05T06:18:28.322Z,10.16
2023-01-05T06:21:01.179Z,10.19
2023-01-05T06:23:28.175Z,10.17
2023-01-05T06:25:54.696Z,10.21
2023-01-05T06:28:21.194Z,10.14
2023-01-05T06:30:50.845Z,10.07
2023-01-05T06:33:20.281Z,10.08
2023-01-05T06:35:50.335Z,9.98
2023-01-05T06:38:27.069Z,9.96
2023-01-05T06:40:54.745Z,10.08
2023-01-05T06:43:21.625Z,10.14
2023-01-05T06:45:52.870Z,10.01
2023-01-05T06:48:19.444Z,10.07
2023-01-05T06:50:48.277Z,10.08
2023-01-05T06:53:14.748Z,10.07
2023-01-05T06:55:41.246Z,9.95
2023-01-05T06:58:07.823Z,9.90
2023-01-05T07:00:34.451Z,10.03
2023-01-05T07:03:01.025Z,9.95
2023-01-05T07:05:27.736Z,9.98
2023-01-05T07:07:54.505Z,9.98
2023-01-05T07:10:21.494Z,10.23
2023-01-05T07:12:49.482Z,10.19
2023-01-05T07:15:19.066Z,10.06
2023-01-05T07:17:46.105Z,10.09
2023-01-05T07:20:13.120Z,10.06
2023-01-05T07:22:40.046Z,10.23
2023-01-05T07:25:07.105Z,10.11
2023-01-05T07:27:33.721Z,10.19
2023-01-05T07:30:00.308Z,10.17
2023-01-05T07:32:26.820Z,10.16
2023-01-05T07:34:55.635Z,10.07
2023-01-05T07:37:24.756Z,10.03
2023-01-05T07:39:52.495Z,10.06
2023-01-05T07:42:19.513Z,10.13
2023-01-05T07:44:48.881Z,10.14
2023-01-05T07:47:16.326Z,10.06
2023-01-05T07:49:43.172Z,10.14
2023-01-05T07:52:10.284Z,10.13
2023-01-05T07:54:37.190Z,10.25
2023-01-05T07:57:03.905Z,10.23
2023-01-05T07:59:30.519Z,10.21
2023-01-05T08:01:57.502Z,10.30
2023-01-05T08:04:24.464Z,10.38
2023-01-05T08:06:52.703Z,10.37
2023-01-05T08:09:37.847Z,10.50
2023-01-05T08:12:07.155Z,10.57
2023-01-05T08:14:33.727Z,10.47
2023-01-05T08:17:00.316Z,10.59
2023-01-05T08:19:27.071Z,10.62
2023-01-05T08:21:53.585Z,10.45
2023-01-05T08:24:20.367Z,10.56
2023-01-05T08:26:51.276Z,10.59
2023-01-05T08:29:21.686Z,10.60
2023-01-05T08:31:48.699Z,10.67
2023-01-05T08:34:15.290Z,10.59
2023-01-05T08:36:41.873Z,10.68
2023-01-05T08:39:11.050Z,10.67
2023-01-05T08:41:39.083Z,10.80
2023-01-05T08:44:07.673Z,10.83
2023-01-05T08:46:36.228Z,10.94
2023-01-05T08:49:06.113Z,11.06
2023-01-05T08:51:33.214Z,11.12
2023-01-05T08:53:59.953Z,11.15
2023-01-05T08:56:27.241Z,11.13
2023-01-05T08:58:59.095Z,11.16
2023-01-05T09:01:25.926Z,11.21
2023-01-05T09:03:52.569Z,11.13
2023-01-05T09:06:19.081Z,11.37
2023-01-05T09:08:49.522Z,11.42
2023-01-05T09:11:19.246Z,11.44
2023-01-05T09:13:54.683Z,11.36
2023-01-05T09:16:49.443Z,11.38
2023-01-05T09:19:11.295Z,11.43
2023-01-05T09:21:40.889Z,11.39
2023-01-05T09:24:08.636Z,11.60
2023-01-05T09:26:35.180Z,11.57
2023-01-05T09:29:01.739Z,11.46
2023-01-05T09:31:28.328Z,11.46
2023-01-05T09:33:56.998Z,11.62
2023-01-05T09:36:24.524Z,11.67
2023-01-05T09:38:57.848Z,11.70
2023-01-05T09:41:38.529Z,11.73
2023-01-05T09:44:12.248Z,11.69
2023-01-05T09:46:42.986Z,11.69
2023-01-05T09:49:18.480Z,11.87
2023-01-05T09:51:45.067Z,11.67
2023-01-05T09:54:18.709Z,11.70
2023-01-05T09:59:37.698Z,11.67
2023-01-05T10:02:20.814Z,11.60
2023-01-05T10:04:52.132Z,11.52
2023-01-05T10:07:49.536Z,11.69
2023-01-05T10:11:09.686Z,11.70
2023-01-05T10:13:47.633Z,11.70
2023-01-05T10:16:18.181Z,11.65
2023-01-05T10:18:46.718Z,11.63
2023-01-05T10:21:19.853Z,11.73
2023-01-05T10:23:58.509Z,11.74
2023-01-05T10:26:51.331Z,11.71
2023-01-05T10:29:27.375Z,11.54
2023-01-05T10:31:56.022Z,11.48
2023-01-05T10:34:53.113Z,11.57
2023-01-05T10:37:39.064Z,11.61
2023-01-05T10:40:08.310Z,11.64
2023-01-05T10:42:45.286Z,11.65
2023-01-05T10:45:21.078Z,11.54
2023-01-05T10:47:50.812Z,11.64
2023-01-05T10:50:41.025Z,11.51
2023-01-05T10:53:18.824Z,11.48
2023-01-05T10:55:55.040Z,11.65
2023-01-05T10:58:26.826Z,11.65
2023-01-05T11:01:23.391Z,11.71
2023-01-05T11:04:26.506Z,11.74
2023-01-05T11:06:41.437Z,11.96
2023-01-05T11:09:22.561Z,12.08
2023-01-05T11:12:22.725Z,12.32
2023-01-05T11:14:58.415Z,12.40
2023-01-05T11:17:28.417Z,12.47
2023-01-05T11:19:57.485Z,12.41
2023-01-05T11:22:35.649Z,12.45
2023-01-05T11:25:30.837Z,12.43
2023-01-05T11:28:14.927Z,12.30
2023-01-05T11:31:04.539Z,12.22
2023-01-05T11:33:34.896Z,12.03
2023-01-05T11:36:03.838Z,11.95
2023-01-05T11:38:31.404Z,12.15
2023-01-05T11:41:00.260Z,12.10
2023-01-05T11:43:30.592Z,12.01
2023-01-05T11:46:00.910Z,11.79
2023-01-05T11:48:32.748Z,11.87
2023-01-05T11:50:59.952Z,12.01
2023-01-05T11:53:26.526Z,12.13
2023-01-05T11:56:08.357Z,12.31
2023-01-05T11:58:49.043Z,12.28
2023-01-05T12:01:48.795Z,12.37
2023-01-05T12:04:35.073Z,12.44
2023-01-05T12:07:32.777Z,12.45
2023-01-05T12:10:35.062Z,12.47
2023-01-05T12:13:18.550Z,12.55
2023-01-05T12:16:22.066Z,12.62
2023-01-05T12:19:06.974Z,12.61
2023-01-05T12:21:41.362Z,12.45
2023-01-05T12:24:07.934Z,12.46
2023-01-05T12:26:46.872Z,12.28
2023-01-05T12:35:55.234Z,12.55
2023-01-05T12:38:43.848Z,12.41
2023-01-05T12:41:26.441Z,12.37
2023-01-05T12:44:34.141Z,12.31
2023-01-05T12:47:38.941Z,12.24
2023-01-05T12:50:21.324Z,12.33
2023-01-05T12:52:52.727Z,12.37
2023-01-05T12:55:33.900Z,12.38
2023-01-05T12:58:12.518Z,12.42
2023-01-05T13:00:46.264Z,12.48
2023-01-05T13:03:52.125Z,12.35
2023-01-05T13:06:24.106Z,12.31
2023-01-05T13:09:03.578Z,12.17
2023-01-05T13:11:52.363Z,12.10
2023-01-05T13:14:24.189Z,11.97
2023-01-05T13:16:59.556Z,12.00
2023-01-05T13:19:38.354Z,11.84
2023-01-05T13:22:29.221Z,11.94
2023-01-05T13:25:03.618Z,12.02
2023-01-05T13:27:32.123Z,12.08
2023-01-05T13:30:01.257Z,12.11
2023-01-05T13:32:49.473Z,12.20
2023-01-05T13:35:37.790Z,12.24
2023-01-05T13:38:37.781Z,12.24
2023-01-05T13:41:13.354Z,12.12
2023-01-05T13:44:01.744Z,12.11
2023-01-05T13:46:40.343Z,12.15
2023-01-05T13:49:28.567Z,12.21
2023-01-05T13:52:01.222Z,12.26
2023-01-05T13:54:43.081Z,12.29
2023-01-05T13:57:24.022Z,12.33
2023-01-05T14:00:06.573Z,12.37
2023-01-05T14:02:40.348Z,12.39
2023-01-05T14:05:16.551Z,12.52
2023-01-05T14:07:43.353Z,12.53
2023-01-05T14:10:27.312Z,12.63
2023-01-05T14:12:54.445Z,12.60
2023-01-05T14:15:29.883Z,12.66
2023-01-05T14:17:58.170Z,12.69
2023-01-05T14:20:45.048Z,12.74
2023-01-05T14:23:23.766Z,12.83
2023-01-05T14:26:06.732Z,12.78
2023-01-05T14:28:36.249Z,12.72
2023-01-05T14:31:11.122Z,12.72
2023-01-05T14:33:46.842Z,12.73
2023-01-05T14:36:33.801Z,12.73
2023-01-05T14:39:22.760Z,12.66
2023-01-05T14:42:01.536Z,12.65
2023-01-05T14:44:34.682Z,12.56
2023-01-05T14:47:01.981Z,12.53
2023-01-05T14:49:37.154Z,12.42
2023-01-05T14:52:06.712Z,12.41
2023-01-05T14:54:42.427Z,12.41
2023-01-05T14:57:27.226Z,12.36
2023-01-05T15:00:03.929Z,12.27
2023-01-05T15:02:34.823Z,12.54
2023-01-05T15:05:08.140Z,12.51
2023-01-05T15:08:14.031Z,12.46
2023-01-05T15:11:11.180Z,12.45
2023-01-05T15:14:23.613Z,12.20
2023-01-05T15:17:08.299Z,12.15
2023-01-05T15:19:55.024Z,11.89
2023-01-05T15:22:42.836Z,11.78
2023-01-05T15:25:58.875Z,11.61
2023-01-05T15:29:23.997Z,11.66
2023-01-05T15:32:06.111Z,11.45
2023-01-05T15:34:57.290Z,11.41
2023-01-05T15:37:33.247Z,11.27
2023-01-05T15:40:04.123Z,11.34
2023-01-05T15:42:42.676Z,11.13
2023-01-05T15:45:19.791Z,11.22
2023-01-05T15:47:47.497Z,11.12
2023-01-05T15:50:25.488Z,11.27
2023-01-05T15:52:57.824Z,11.19
2023-01-05T15:55:25.973Z,11.17
2023-01-05T15:58:04.860Z,11.16
2023-01-05T16:00:34.269Z,10.92
2023-01-05T16:03:01.684Z,11.05
2023-01-05T16:05:33.980Z,11.05
2023-01-05T16:08:08.165Z,11.15
2023-01-05T16:10:41.379Z,11.14
2023-01-05T16:13:18.678Z,11.14
2023-01-05T16:15:48.372Z,11.05
2023-01-05T16:18:23.417Z,10.99
2023-01-05T16:20:53.328Z,11.01
2023-01-05T16:23:42.759Z,10.99
2023-01-05T16:26:17.337Z,10.92
2023-01-05T16:28:45.095Z,10.88
2023-01-05T16:31:24.809Z,10.93
2023-01-05T16:34:12.283Z,10.85
2023-01-05T16:36:38.849Z,10.87
2023-01-05T16:39:23.119Z,10.89
2023-01-05T16:42:08.364Z,10.95
2023-01-05T16:44:36.520Z,10.88
2023-01-05T16:47:10.531Z,10.95
2023-01-05T16:49:53.331Z,10.89
2023-01-05T16:52:27.249Z,11.01
2023-01-05T16:55:29.562Z,10.94
2023-01-05T16:57:57.349Z,10.90
2023-01-05T17:00:30.161Z,11.08
2023-01-05T17:02:58.274Z,11.12
2023-01-05T17:05:27.780Z,10.97
2023-01-05T17:08:21.882Z,11.05
2023-01-05T17:10:49.250Z,11.03
2023-01-05T17:13:26.100Z,11.02
2023-01-05T17:15:55.245Z,11.01
2023-01-05T17:18:24.843Z,11.05
2023-01-05T17:20:56.637Z,11.07
2023-01-05T17:23:33.747Z,11.02
2023-01-05T17:26:04.441Z,11.15
2023-01-05T17:28:30.929Z,11.09
2023-01-05T17:30:57.650Z,11.05
2023-01-05T17:33:30.275Z,10.92
2023-01-05T17:35:56.863Z,11.12
2023-01-05T17:38:25.555Z,10.93
2023-01-05T17:40:55.129Z,10.84
2023-01-05T17:43:25.090Z,11.13
2023-01-05T17:45:52.684Z,11.01
2023-01-05T17:48:22.273Z,11.12
2023-01-05T17:50:50.999Z,11.12
2023-01-05T17:53:22.303Z,11.08
2023-01-05T17:55:48.906Z,10.90
2023-01-05T17:58:16.025Z,11.09
2023-01-05T18:03:22.839Z,11.04
2023-01-05T18:05:55.302Z,11.07
2023-01-05T18:08:24.719Z,11.02
2023-01-05T18:10:53.781Z,10.95
2023-01-05T18:13:25.130Z,10.99
2023-01-05T18:15:53.338Z,11.03
2023-01-05T18:18:21.693Z,10.96
2023-01-05T18:20:51.948Z,10.94
2023-01-05T18:23:22.127Z,10.94
2023-01-05T18:25:48.649Z,11.00
2023-01-05T18:28:15.286Z,10.86
2023-01-05T18:30:42.533Z,10.91
2023-01-05T18:33:09.105Z,10.94
2023-01-05T18:35:37.294Z,10.86
2023-01-05T18:38:05.227Z,10.88
2023-01-05T18:40:31.850Z,10.93
2023-01-05T18:42:58.621Z,10.92
2023-01-05T18:45:38.093Z,10.85
2023-01-05T18:48:05.595Z,10.77
2023-01-05T18:50:32.124Z,10.90
2023-01-05T18:52:58.550Z,10.85
2023-01-05T18:55:25.067Z,10.85
2023-01-05T18:57:55.028Z,10.83
2023-01-05T19:00:24.522Z,10.87
2023-01-05T19:02:54.194Z,10.93
2023-01-05T19:05:23.588Z,10.90
2023-01-05T19:07:53.340Z,10.89
2023-01-05T19:10:22.093Z,10.66
2023-01-05T19:12:48.639Z,10.71
2023-01-05T19:15:17.699Z,10.86
2023-01-05T19:17:44.258Z,10.77
2023-01-05T19:20:11.167Z,10.76
2023-01-05T19:22:38.751Z,10.80
2023-01-05T19:25:07.052Z,10.88
2023-01-05T19:27:33.656Z,10.78
2023-01-05T19:30:00.123Z,10.81
2023-01-05T19:32:26.591Z,10.82
2023-01-05T19:34:55.909Z,10.75
2023-01-05T19:37:25.145Z,10.81
2023-01-05T19:39:54.831Z,10.76
2023-01-05T19:42:25.721Z,10.56
2023-01-05T19:44:54.877Z,10.60
2023-01-05T19:47:22.200Z,10.57
2023-01-05T19:49:48.710Z,10.66
2023-01-05T19:52:15.223Z,10.55
2023-01-05T19:54:42.199Z,10.58
2023-01-05T19:57:08.686Z,10.50
2023-01-05T19:59:36.502Z,10.62
2023-01-05T20:02:05.173Z,10.76
2023-01-05T20:04:32.636Z,10.70
2023-01-05T20:07:02.338Z,10.48
2023-01-05T20:09:29.476Z,10.59
2023-01-05T20:12:05.759Z,10.62
2023-01-05T20:14:39.356Z,10.63
2023-01-05T20:17:08.746Z,10.53
2023-01-05T20:20:05.812Z,10.62
2023-01-05T20:22:32.329Z,10.30
2023-01-05T20:24:58.792Z,10.61
2023-01-05T20:27:25.217Z,10.59
2023-01-05T20:29:52.820Z,10.60
2023-01-05T20:32:22.406Z,10.57
2023-01-05T20:34:59.564Z,10.76
2023-01-05T20:37:27.625Z,10.84
2023-01-05T20:39:59.403Z,10.83
2023-01-05T20:42:27.473Z,10.74
2023-01-05T20:44:57.719Z,10.76
2023-01-05T20:47:27.226Z,10.75
2023-01-05T20:49:57.692Z,10.73
2023-01-05T20:52:27.124Z,10.65
2023-01-05T20:54:56.662Z,10.61
2023-01-05T20:57:24.597Z,10.61
2023-01-05T20:59:51.125Z,10.49
2023-01-05T21:02:24.014Z,10.32
2023-01-05T21:04:55.638Z,10.27
2023-01-05T21:07:24.680Z,10.21
2023-01-05T21:09:53.332Z,10.31
2023-01-05T21:12:20.720Z,10.23
2023-01-05T21:14:55.236Z,10.25
2023-01-05T21:17:21.716Z,10.19
2023-01-05T21:19:48.270Z,10.30
2023-01-05T21:22:17.248Z,10.26
2023-01-05T21:24:45.269Z,10.36
2023-01-05T21:27:11.833Z,10.36
2023-01-05T21:29:38.280Z,10.38
2023-01-05T21:32:04.900Z,10.52
2023-01-05T21:34:31.417Z,10.47
2023-01-05T21:36:57.918Z,10.44
2023-01-05T21:39:28.902Z,10.43
2023-01-05T21:42:16.832Z,10.51
2023-01-05T21:44:43.361Z,10.45
2023-01-05T21:47:10.050Z,10.42
2023-01-05T21:49:36.843Z,10.37
2023-01-05T21:52:22.478Z,10.38
2023-01-05T21:55:09.634Z,10.39
2023-01-05T21:57:36.227Z,10.50
2023-01-05T22:00:03.162Z,10.49
2023-01-05T22:02:29.587Z,10.43
2023-01-05T22:04:56.975Z,10.41
2023-01-05T22:07:25.924Z,10.45
2023-01-05T22:09:52.436Z,10.43
2023-01-05T22:12:18.911Z,10.53
2023-01-05T22:14:46.023Z,10.51
2023-01-05T22:17:12.931Z,10.48
2023-01-05T22:19:39.643Z,10.43
2023-01-05T22:22:06.237Z,10.44
2023-01-05T22:24:32.847Z,10.47
2023-01-05T22:26:59.705Z,10.51
2023-01-05T22:29:29.621Z,10.51
2023-01-05T22:32:02.030Z,10.47
2023-01-05T22:34:30.147Z,10.44
2023-01-05T22:36:59.701Z,10.45
2023-01-05T22:39:26.871Z,10.42
2023-01-05T22:41:54.378Z,10.44
2023-01-05T22:44:21.302Z,10.34
2023-01-05T22:46:48.067Z,10.43
2023-01-05T22:49:16.617Z,10.39
2023-01-05T22:51:44.937Z,10.42
2023-01-05T22:54:12.195Z,10.42
2023-01-05T22:56:38.987Z,10.34
2023-01-05T22:59:05.626Z,10.22
2023-01-05T23:01:37.760Z,10.26
2023-01-05T23:04:06.032Z,10.24
2023-01-05T23:06:33.046Z,10.30
2023-01-05T23:09:04.795Z,10.33
2023-01-05T23:11:35.849Z,10.34
2023-01-05T23:14:04.512Z,10.31
2023-01-05T23:16:33.275Z,10.22
2023-01-05T23:19:03.506Z,10.06
2023-01-05T23:21:33.840Z,10.16
2023-01-05T23:24:03.268Z,10.04
2023-01-05T23:26:32.753Z,10.09
2023-01-05T23:29:01.563Z,10.16
2023-01-05T23:31:28.336Z,10.16
2023-01-05T23:33:55.338Z,10.16
2023-01-05T23:36:23.662Z,10.11
2023-01-05T23:38:50.503Z,10.10
2023-01-05T23:41:17.652Z,10.11
2023-01-05T23:43:45.325Z,10.12
2023-01-05T23:46:16.444Z,10.13
2023-01-05T23:48:43.764Z,10.19
2023-01-05T23:51:13.953Z,10.20
2023-01-05T23:53:42.927Z,10.15
2023-01-05T23:56:23.133Z,10.16
2023-01-05T23:58:55.088Z,10.16
